sensor_id;sensor_type;location;lat;lon;timestamp;P1;durP1;ratioP1;P2;durP2;ratioP2
49051;SDS011;34866;48.670;18.260;2024-01-30T00:02:25;17.65;;;12.27;;
49051;SDS011;34866;48.670;18.260;2024-01-30T00:04:51;19.48;;;10.45;;
49051;SDS011;34866;48.670;18.260;2024-01-30T00:07:17;24.45;;;11.18;;
49051;SDS011;34866;48.670;18.260;2024-01-30T00:09:46;15.18;;;9.73;;
49051;SDS011;34866;48.670;18.260;2024-01-30T00:12:13;28.70;;;11.68;;
49051;SDS011;34866;48.670;18.260;2024-01-30T00:14:41;22.85;;;9.20;;
49051;SDS011;34866;48.670;18.260;2024-01-30T00:17:08;20.60;;;8.15;;
49051;SDS011;34866;48.670;18.260;2024-01-30T00:19:34;25.20;;;11.32;;
49051;SDS011;34866;48.670;18.260;2024-01-30T00:22:00;15.75;;;10.02;;
49051;SDS011;34866;48.670;18.260;2024-01-30T00:24:26;19.58;;;11.57;;
49051;SDS011;34866;48.670;18.260;2024-01-30T00:26:52;24.42;;;12.60;;
49051;SDS011;34866;48.670;18.260;2024-01-30T00:29:18;21.55;;;11.95;;
49051;SDS011;34866;48.670;18.260;2024-01-30T00:31:45;17.50;;;8.88;;
49051;SDS011;34866;48.670;18.260;2024-01-30T00:34:11;13.40;;;10.07;;
49051;SDS011;34866;48.670;18.260;2024-01-30T00:36:37;17.95;;;11.13;;
49051;SDS011;34866;48.670;18.260;2024-01-30T00:39:03;29.77;;;12.65;;
49051;SDS011;34866;48.670;18.260;2024-01-30T00:41:32;29.15;;;10.73;;
49051;SDS011;34866;48.670;18.260;2024-01-30T00:43:58;24.00;;;10.85;;
49051;SDS011;34866;48.670;18.260;2024-01-30T00:46:24;23.33;;;8.85;;
49051;SDS011;34866;48.670;18.260;2024-01-30T00:48:50;18.98;;;11.88;;
49051;SDS011;34866;48.670;18.260;2024-01-30T00:51:16;22.88;;;11.32;;
49051;SDS011;34866;48.670;18.260;2024-01-30T00:53:42;22.27;;;12.10;;
49051;SDS011;34866;48.670;18.260;2024-01-30T00:56:08;18.48;;;10.32;;
49051;SDS011;34866;48.670;18.260;2024-01-30T00:58:34;24.20;;;10.20;;
49051;SDS011;34866;48.670;18.260;2024-01-30T01:01:00;26.55;;;11.30;;
49051;SDS011;34866;48.670;18.260;2024-01-30T01:03:26;22.35;;;11.85;;
49051;SDS011;34866;48.670;18.260;2024-01-30T01:05:52;21.85;;;11.18;;
49051;SDS011;34866;48.670;18.260;2024-01-30T01:08:18;17.48;;;10.27;;
49051;SDS011;34866;48.670;18.260;2024-01-30T01:10:45;21.60;;;10.43;;
49051;SDS011;34866;48.670;18.260;2024-01-30T01:13:11;17.08;;;9.35;;
49051;SDS011;34866;48.670;18.260;2024-01-30T01:15:37;25.60;;;10.85;;
49051;SDS011;34866;48.670;18.260;2024-01-30T01:18:03;21.63;;;11.13;;
49051;SDS011;34866;48.670;18.260;2024-01-30T01:20:29;31.45;;;12.30;;
49051;SDS011;34866;48.670;18.260;2024-01-30T01:22:55;22.45;;;9.93;;
49051;SDS011;34866;48.670;18.260;2024-01-30T01:25:21;26.63;;;11.82;;
49051;SDS011;34866;48.670;18.260;2024-01-30T01:27:49;15.52;;;10.95;;
49051;SDS011;34866;48.670;18.260;2024-01-30T01:30:17;16.77;;;10.15;;
49051;SDS011;34866;48.670;18.260;2024-01-30T01:32:48;25.15;;;12.40;;
49051;SDS011;34866;48.670;18.260;2024-01-30T01:35:22;15.15;;;10.50;;
49051;SDS011;34866;48.670;18.260;2024-01-30T01:37:52;24.00;;;11.88;;
49051;SDS011;34866;48.670;18.260;2024-01-30T01:40:22;33.10;;;13.00;;
49051;SDS011;34866;48.670;18.260;2024-01-30T01:42:49;14.98;;;9.48;;
49051;SDS011;34866;48.670;18.260;2024-01-30T01:45:16;13.60;;;9.55;;
49051;SDS011;34866;48.670;18.260;2024-01-30T01:47:42;14.93;;;10.00;;
49051;SDS011;34866;48.670;18.260;2024-01-30T01:50:08;19.60;;;10.68;;
49051;SDS011;34866;48.670;18.260;2024-01-30T01:52:35;20.73;;;11.48;;
49051;SDS011;34866;48.670;18.260;2024-01-30T01:55:01;15.40;;;10.48;;
49051;SDS011;34866;48.670;18.260;2024-01-30T01:57:28;18.35;;;11.20;;
49051;SDS011;34866;48.670;18.260;2024-01-30T01:59:54;26.17;;;12.55;;
49051;SDS011;34866;48.670;18.260;2024-01-30T02:02:20;28.73;;;10.32;;
49051;SDS011;34866;48.670;18.260;2024-01-30T02:04:46;26.98;;;14.48;;
49051;SDS011;34866;48.670;18.260;2024-01-30T02:07:12;15.18;;;11.18;;
49051;SDS011;34866;48.670;18.260;2024-01-30T02:09:38;19.63;;;9.93;;
49051;SDS011;34866;48.670;18.260;2024-01-30T02:12:05;25.70;;;13.68;;
49051;SDS011;34866;48.670;18.260;2024-01-30T02:14:31;20.38;;;11.57;;
49051;SDS011;34866;48.670;18.260;2024-01-30T02:16:57;18.60;;;11.15;;
49051;SDS011;34866;48.670;18.260;2024-01-30T02:19:23;20.25;;;10.57;;
49051;SDS011;34866;48.670;18.260;2024-01-30T02:21:49;23.52;;;12.23;;
49051;SDS011;34866;48.670;18.260;2024-01-30T02:24:15;26.55;;;11.70;;
49051;SDS011;34866;48.670;18.260;2024-01-30T02:26:41;15.93;;;10.02;;
49051;SDS011;34866;48.670;18.260;2024-01-30T02:29:07;17.33;;;9.48;;
49051;SDS011;34866;48.670;18.260;2024-01-30T02:31:34;19.55;;;10.45;;
49051;SDS011;34866;48.670;18.260;2024-01-30T02:34:00;15.82;;;10.93;;
49051;SDS011;34866;48.670;18.260;2024-01-30T02:36:26;13.95;;;8.52;;
49051;SDS011;34866;48.670;18.260;2024-01-30T02:38:52;16.50;;;10.45;;
49051;SDS011;34866;48.670;18.260;2024-01-30T02:41:18;14.75;;;8.38;;
49051;SDS011;34866;48.670;18.260;2024-01-30T02:43:44;14.80;;;8.10;;
49051;SDS011;34866;48.670;18.260;2024-01-30T02:46:10;14.80;;;7.93;;
49051;SDS011;34866;48.670;18.260;2024-01-30T02:48:36;13.38;;;9.90;;
49051;SDS011;34866;48.670;18.260;2024-01-30T02:51:04;23.13;;;11.70;;
49051;SDS011;34866;48.670;18.260;2024-01-30T02:53:30;13.82;;;8.95;;
49051;SDS011;34866;48.670;18.260;2024-01-30T02:55:56;15.98;;;9.00;;
49051;SDS011;34866;48.670;18.260;2024-01-30T02:58:22;18.10;;;10.55;;
49051;SDS011;34866;48.670;18.260;2024-01-30T03:00:48;18.40;;;9.18;;
49051;SDS011;34866;48.670;18.260;2024-01-30T03:03:14;15.98;;;11.60;;
49051;SDS011;34866;48.670;18.260;2024-01-30T03:05:40;15.98;;;11.60;;
49051;SDS011;34866;48.670;18.260;2024-01-30T03:08:06;16.95;;;7.88;;
49051;SDS011;34866;48.670;18.260;2024-01-30T03:10:32;18.17;;;9.30;;
49051;SDS011;34866;48.670;18.260;2024-01-30T03:12:58;21.88;;;9.02;;
49051;SDS011;34866;48.670;18.260;2024-01-30T03:15:24;21.08;;;11.30;;
49051;SDS011;34866;48.670;18.260;2024-01-30T03:17:50;25.85;;;11.77;;
49051;SDS011;34866;48.670;18.260;2024-01-30T03:20:16;26.92;;;11.77;;
49051;SDS011;34866;48.670;18.260;2024-01-30T03:22:42;22.13;;;8.93;;
49051;SDS011;34866;48.670;18.260;2024-01-30T03:25:08;18.67;;;10.43;;
49051;SDS011;34866;48.670;18.260;2024-01-30T03:27:34;20.60;;;12.05;;
49051;SDS011;34866;48.670;18.260;2024-01-30T03:30:00;23.15;;;11.68;;
49051;SDS011;34866;48.670;18.260;2024-01-30T03:32:27;18.73;;;11.23;;
49051;SDS011;34866;48.670;18.260;2024-01-30T03:34:53;24.92;;;9.48;;
49051;SDS011;34866;48.670;18.260;2024-01-30T03:37:19;15.43;;;9.52;;
49051;SDS011;34866;48.670;18.260;2024-01-30T03:39:45;30.77;;;10.57;;
49051;SDS011;34866;48.670;18.260;2024-01-30T03:42:11;15.63;;;9.10;;
49051;SDS011;34866;48.670;18.260;2024-01-30T03:44:37;22.70;;;12.90;;
49051;SDS011;34866;48.670;18.260;2024-01-30T03:47:03;20.40;;;9.38;;
49051;SDS011;34866;48.670;18.260;2024-01-30T03:49:29;24.90;;;12.30;;
49051;SDS011;34866;48.670;18.260;2024-01-30T03:51:55;16.75;;;12.40;;
49051;SDS011;34866;48.670;18.260;2024-01-30T03:54:21;21.85;;;10.70;;
49051;SDS011;34866;48.670;18.260;2024-01-30T03:56:47;37.00;;;12.88;;
49051;SDS011;34866;48.670;18.260;2024-01-30T03:59:13;20.48;;;12.82;;
49051;SDS011;34866;48.670;18.260;2024-01-30T04:01:39;16.45;;;11.73;;
49051;SDS011;34866;48.670;18.260;2024-01-30T04:04:06;28.92;;;9.23;;
49051;SDS011;34866;48.670;18.260;2024-01-30T04:06:32;23.35;;;11.50;;
49051;SDS011;34866;48.670;18.260;2024-01-30T04:08:58;20.13;;;12.13;;
49051;SDS011;34866;48.670;18.260;2024-01-30T04:11:24;21.05;;;10.55;;
49051;SDS011;34866;48.670;18.260;2024-01-30T04:13:50;16.52;;;11.70;;
49051;SDS011;34866;48.670;18.260;2024-01-30T04:16:20;25.45;;;11.68;;
49051;SDS011;34866;48.670;18.260;2024-01-30T04:18:47;14.73;;;8.60;;
49051;SDS011;34866;48.670;18.260;2024-01-30T04:21:13;14.77;;;10.57;;
49051;SDS011;34866;48.670;18.260;2024-01-30T04:23:39;14.43;;;10.65;;
49051;SDS011;34866;48.670;18.260;2024-01-30T04:26:06;15.38;;;9.98;;
49051;SDS011;34866;48.670;18.260;2024-01-30T04:28:32;19.95;;;12.90;;
49051;SDS011;34866;48.670;18.260;2024-01-30T04:30:58;17.42;;;9.52;;
49051;SDS011;34866;48.670;18.260;2024-01-30T04:33:24;24.98;;;11.50;;
49051;SDS011;34866;48.670;18.260;2024-01-30T04:35:50;18.05;;;12.38;;
49051;SDS011;34866;48.670;18.260;2024-01-30T04:38:17;20.40;;;10.57;;
49051;SDS011;34866;48.670;18.260;2024-01-30T04:40:43;16.23;;;10.15;;
49051;SDS011;34866;48.670;18.260;2024-01-30T04:43:09;19.52;;;10.90;;
49051;SDS011;34866;48.670;18.260;2024-01-30T04:45:35;18.92;;;10.73;;
49051;SDS011;34866;48.670;18.260;2024-01-30T04:48:01;15.50;;;10.73;;
49051;SDS011;34866;48.670;18.260;2024-01-30T04:50:27;26.70;;;13.48;;
49051;SDS011;34866;48.670;18.260;2024-01-30T04:52:53;23.45;;;10.68;;
49051;SDS011;34866;48.670;18.260;2024-01-30T04:55:19;30.27;;;10.95;;
49051;SDS011;34866;48.670;18.260;2024-01-30T04:57:45;25.20;;;10.02;;
49051;SDS011;34866;48.670;18.260;2024-01-30T05:00:11;22.13;;;9.23;;
49051;SDS011;34866;48.670;18.260;2024-01-30T05:02:37;17.02;;;10.13;;
49051;SDS011;34866;48.670;18.260;2024-01-30T05:05:04;18.17;;;11.02;;
49051;SDS011;34866;48.670;18.260;2024-01-30T05:07:31;20.15;;;10.00;;
49051;SDS011;34866;48.670;18.260;2024-01-30T05:09:57;22.75;;;10.57;;
49051;SDS011;34866;48.670;18.260;2024-01-30T05:12:23;14.45;;;11.82;;
49051;SDS011;34866;48.670;18.260;2024-01-30T05:14:49;34.75;;;13.75;;
49051;SDS011;34866;48.670;18.260;2024-01-30T05:17:15;17.00;;;11.15;;
49051;SDS011;34866;48.670;18.260;2024-01-30T05:19:42;20.00;;;11.93;;
49051;SDS011;34866;48.670;18.260;2024-01-30T05:22:08;19.52;;;14.23;;
49051;SDS011;34866;48.670;18.260;2024-01-30T05:24:34;13.60;;;8.55;;
49051;SDS011;34866;48.670;18.260;2024-01-30T05:27:00;26.17;;;10.07;;
49051;SDS011;34866;48.670;18.260;2024-01-30T05:29:28;12.63;;;9.10;;
49051;SDS011;34866;48.670;18.260;2024-01-30T05:31:54;34.42;;;12.73;;
49051;SDS011;34866;48.670;18.260;2024-01-30T05:34:20;17.98;;;9.43;;
49051;SDS011;34866;48.670;18.260;2024-01-30T05:36:46;15.75;;;9.88;;
49051;SDS011;34866;48.670;18.260;2024-01-30T05:39:12;15.88;;;9.68;;
49051;SDS011;34866;48.670;18.260;2024-01-30T05:41:38;25.90;;;11.63;;
49051;SDS011;34866;48.670;18.260;2024-01-30T05:44:04;15.88;;;8.60;;
49051;SDS011;34866;48.670;18.260;2024-01-30T05:46:31;16.27;;;10.45;;
49051;SDS011;34866;48.670;18.260;2024-01-30T05:48:57;18.80;;;9.23;;
49051;SDS011;34866;48.670;18.260;2024-01-30T05:51:23;13.32;;;9.68;;
49051;SDS011;34866;48.670;18.260;2024-01-30T05:53:49;12.20;;;8.25;;
49051;SDS011;34866;48.670;18.260;2024-01-30T05:56:15;14.55;;;10.15;;
49051;SDS011;34866;48.670;18.260;2024-01-30T05:58:41;16.00;;;9.65;;
49051;SDS011;34866;48.670;18.260;2024-01-30T06:01:08;20.58;;;10.23;;
49051;SDS011;34866;48.670;18.260;2024-01-30T06:03:34;15.63;;;9.52;;
49051;SDS011;34866;48.670;18.260;2024-01-30T06:06:01;14.45;;;8.95;;
49051;SDS011;34866;48.670;18.260;2024-01-30T06:08:27;14.45;;;8.38;;
49051;SDS011;34866;48.670;18.260;2024-01-30T06:10:53;16.60;;;9.75;;
49051;SDS011;34866;48.670;18.260;2024-01-30T06:13:19;21.95;;;12.70;;
49051;SDS011;34866;48.670;18.260;2024-01-30T06:15:45;23.30;;;10.00;;
49051;SDS011;34866;48.670;18.260;2024-01-30T06:18:12;19.73;;;11.50;;
49051;SDS011;34866;48.670;18.260;2024-01-30T06:20:38;11.52;;;8.13;;
49051;SDS011;34866;48.670;18.260;2024-01-30T06:23:04;19.65;;;8.55;;
49051;SDS011;34866;48.670;18.260;2024-01-30T06:25:30;23.98;;;11.07;;
49051;SDS011;34866;48.670;18.260;2024-01-30T06:27:56;21.35;;;11.38;;
49051;SDS011;34866;48.670;18.260;2024-01-30T06:30:22;16.75;;;10.57;;
49051;SDS011;34866;48.670;18.260;2024-01-30T06:32:48;19.02;;;11.25;;
49051;SDS011;34866;48.670;18.260;2024-01-30T06:35:14;22.67;;;11.52;;
49051;SDS011;34866;48.670;18.260;2024-01-30T06:37:42;22.17;;;10.25;;
49051;SDS011;34866;48.670;18.260;2024-01-30T06:40:08;15.80;;;10.00;;
49051;SDS011;34866;48.670;18.260;2024-01-30T06:42:34;22.63;;;12.25;;
49051;SDS011;34866;48.670;18.260;2024-01-30T06:45:00;19.42;;;11.35;;
49051;SDS011;34866;48.670;18.260;2024-01-30T06:47:26;36.97;;;11.05;;
49051;SDS011;34866;48.670;18.260;2024-01-30T06:49:54;14.98;;;7.97;;
49051;SDS011;34866;48.670;18.260;2024-01-30T06:52:20;28.02;;;10.07;;
49051;SDS011;34866;48.670;18.260;2024-01-30T06:54:46;15.65;;;9.05;;
49051;SDS011;34866;48.670;18.260;2024-01-30T06:57:12;13.90;;;9.05;;
49051;SDS011;34866;48.670;18.260;2024-01-30T06:59:39;14.63;;;10.40;;
49051;SDS011;34866;48.670;18.260;2024-01-30T07:02:08;17.67;;;8.63;;
49051;SDS011;34866;48.670;18.260;2024-01-30T07:04:35;11.52;;;7.28;;
49051;SDS011;34866;48.670;18.260;2024-01-30T07:07:02;21.33;;;10.07;;
49051;SDS011;34866;48.670;18.260;2024-01-30T07:09:30;9.10;;;6.32;;
49051;SDS011;34866;48.670;18.260;2024-01-30T07:11:56;14.40;;;8.75;;
49051;SDS011;34866;48.670;18.260;2024-01-30T07:14:23;17.35;;;10.73;;
49051;SDS011;34866;48.670;18.260;2024-01-30T07:16:49;18.00;;;8.95;;
49051;SDS011;34866;48.670;18.260;2024-01-30T07:19:15;16.98;;;7.22;;
49051;SDS011;34866;48.670;18.260;2024-01-30T07:21:42;25.50;;;11.50;;
49051;SDS011;34866;48.670;18.260;2024-01-30T07:24:08;16.92;;;9.82;;
49051;SDS011;34866;48.670;18.260;2024-01-30T07:26:34;21.75;;;10.45;;
49051;SDS011;34866;48.670;18.260;2024-01-30T07:29:00;21.35;;;12.52;;
49051;SDS011;34866;48.670;18.260;2024-01-30T07:31:27;15.57;;;10.00;;
49051;SDS011;34866;48.670;18.260;2024-01-30T07:33:53;12.70;;;8.15;;
49051;SDS011;34866;48.670;18.260;2024-01-30T07:36:19;13.68;;;7.78;;
49051;SDS011;34866;48.670;18.260;2024-01-30T07:38:46;19.00;;;11.30;;
49051;SDS011;34866;48.670;18.260;2024-01-30T07:41:12;18.63;;;11.40;;
49051;SDS011;34866;48.670;18.260;2024-01-30T07:43:38;23.10;;;9.82;;
49051;SDS011;34866;48.670;18.260;2024-01-30T07:46:04;20.77;;;10.55;;
49051;SDS011;34866;48.670;18.260;2024-01-30T07:48:32;20.95;;;10.25;;
49051;SDS011;34866;48.670;18.260;2024-01-30T07:50:59;17.15;;;8.68;;
49051;SDS011;34866;48.670;18.260;2024-01-30T07:53:25;20.50;;;8.32;;
49051;SDS011;34866;48.670;18.260;2024-01-30T07:55:51;22.02;;;11.32;;
49051;SDS011;34866;48.670;18.260;2024-01-30T07:58:18;21.60;;;9.88;;
49051;SDS011;34866;48.670;18.260;2024-01-30T08:00:44;26.27;;;12.35;;
49051;SDS011;34866;48.670;18.260;2024-01-30T08:03:10;30.40;;;10.68;;
49051;SDS011;34866;48.670;18.260;2024-01-30T08:05:37;22.40;;;12.30;;
49051;SDS011;34866;48.670;18.260;2024-01-30T08:08:04;26.60;;;12.27;;
49051;SDS011;34866;48.670;18.260;2024-01-30T08:10:30;30.30;;;12.98;;
49051;SDS011;34866;48.670;18.260;2024-01-30T08:12:56;26.40;;;13.50;;
49051;SDS011;34866;48.670;18.260;2024-01-30T08:15:22;25.73;;;13.52;;
49051;SDS011;34866;48.670;18.260;2024-01-30T08:17:48;26.60;;;13.85;;
49051;SDS011;34866;48.670;18.260;2024-01-30T08:20:14;23.23;;;11.65;;
49051;SDS011;34866;48.670;18.260;2024-01-30T08:22:41;26.73;;;13.57;;
49051;SDS011;34866;48.670;18.260;2024-01-30T08:25:07;26.33;;;12.75;;
49051;SDS011;34866;48.670;18.260;2024-01-30T08:27:35;22.80;;;13.38;;
49051;SDS011;34866;48.670;18.260;2024-01-30T08:30:03;26.67;;;13.93;;
49051;SDS011;34866;48.670;18.260;2024-01-30T08:32:29;23.33;;;13.40;;
49051;SDS011;34866;48.670;18.260;2024-01-30T08:34:55;36.17;;;15.63;;
49051;SDS011;34866;48.670;18.260;2024-01-30T08:37:21;24.17;;;13.98;;
49051;SDS011;34866;48.670;18.260;2024-01-30T08:39:47;31.48;;;14.48;;
49051;SDS011;34866;48.670;18.260;2024-01-30T08:42:16;22.08;;;13.25;;
49051;SDS011;34866;48.670;18.260;2024-01-30T08:44:47;33.30;;;13.05;;
49051;SDS011;34866;48.670;18.260;2024-01-30T08:47:14;24.58;;;12.15;;
49051;SDS011;34866;48.670;18.260;2024-01-30T08:49:41;29.20;;;11.90;;
49051;SDS011;34866;48.670;18.260;2024-01-30T08:52:09;22.35;;;10.50;;
49051;SDS011;34866;48.670;18.260;2024-01-30T08:54:35;34.42;;;12.65;;
49051;SDS011;34866;48.670;18.260;2024-01-30T08:57:01;22.50;;;11.32;;
49051;SDS011;34866;48.670;18.260;2024-01-30T08:59:28;31.25;;;12.85;;
49051;SDS011;34866;48.670;18.260;2024-01-30T09:01:54;26.13;;;12.57;;
49051;SDS011;34866;48.670;18.260;2024-01-30T09:04:23;26.45;;;11.90;;
49051;SDS011;34866;48.670;18.260;2024-01-30T09:06:49;27.92;;;11.05;;
49051;SDS011;34866;48.670;18.260;2024-01-30T09:09:15;26.20;;;11.13;;
49051;SDS011;34866;48.670;18.260;2024-01-30T09:11:42;22.17;;;12.55;;
49051;SDS011;34866;48.670;18.260;2024-01-30T09:14:08;29.40;;;11.32;;
49051;SDS011;34866;48.670;18.260;2024-01-30T09:16:34;23.75;;;10.93;;
49051;SDS011;34866;48.670;18.260;2024-01-30T09:19:00;26.02;;;11.77;;
49051;SDS011;34866;48.670;18.260;2024-01-30T09:21:25;19.33;;;9.77;;
49051;SDS011;34866;48.670;18.260;2024-01-30T09:23:53;19.45;;;10.63;;
49051;SDS011;34866;48.670;18.260;2024-01-30T09:26:20;20.80;;;9.88;;
49051;SDS011;34866;48.670;18.260;2024-01-30T09:28:45;23.45;;;9.07;;
49051;SDS011;34866;48.670;18.260;2024-01-30T09:31:11;25.00;;;11.75;;
49051;SDS011;34866;48.670;18.260;2024-01-30T09:33:39;21.67;;;10.50;;
49051;SDS011;34866;48.670;18.260;2024-01-30T09:36:07;20.50;;;9.93;;
49051;SDS011;34866;48.670;18.260;2024-01-30T09:38:33;24.95;;;9.20;;
49051;SDS011;34866;48.670;18.260;2024-01-30T09:41:00;20.23;;;9.65;;
49051;SDS011;34866;48.670;18.260;2024-01-30T09:43:32;27.77;;;9.10;;
49051;SDS011;34866;48.670;18.260;2024-01-30T09:45:59;19.75;;;9.32;;
49051;SDS011;34866;48.670;18.260;2024-01-30T09:48:27;17.17;;;9.32;;
49051;SDS011;34866;48.670;18.260;2024-01-30T09:50:55;21.95;;;9.88;;
49051;SDS011;34866;48.670;18.260;2024-01-30T09:53:22;18.25;;;9.32;;
49051;SDS011;34866;48.670;18.260;2024-01-30T09:55:48;18.40;;;8.57;;
49051;SDS011;34866;48.670;18.260;2024-01-30T09:58:15;18.55;;;8.02;;
49051;SDS011;34866;48.670;18.260;2024-01-30T10:00:41;17.58;;;8.68;;
49051;SDS011;34866;48.670;18.260;2024-01-30T10:03:08;16.63;;;7.85;;
49051;SDS011;34866;48.670;18.260;2024-01-30T10:05:34;16.27;;;7.47;;
49051;SDS011;34866;48.670;18.260;2024-01-30T10:08:05;16.30;;;7.00;;
49051;SDS011;34866;48.670;18.260;2024-01-30T10:10:33;15.93;;;7.65;;
49051;SDS011;34866;48.670;18.260;2024-01-30T10:13:00;20.27;;;9.38;;
49051;SDS011;34866;48.670;18.260;2024-01-30T10:15:26;17.45;;;8.45;;
49051;SDS011;34866;48.670;18.260;2024-01-30T10:17:53;15.35;;;7.68;;
49051;SDS011;34866;48.670;18.260;2024-01-30T10:20:19;15.30;;;7.57;;
49051;SDS011;34866;48.670;18.260;2024-01-30T10:22:47;14.95;;;7.38;;
49051;SDS011;34866;48.670;18.260;2024-01-30T10:25:14;16.63;;;7.65;;
49051;SDS011;34866;48.670;18.260;2024-01-30T10:27:40;20.60;;;7.80;;
49051;SDS011;34866;48.670;18.260;2024-01-30T10:30:07;15.73;;;6.70;;
49051;SDS011;34866;48.670;18.260;2024-01-30T10:32:33;17.85;;;7.15;;
49051;SDS011;34866;48.670;18.260;2024-01-30T10:34:59;15.57;;;7.07;;
49051;SDS011;34866;48.670;18.260;2024-01-30T10:37:25;11.80;;;6.10;;
49051;SDS011;34866;48.670;18.260;2024-01-30T10:39:52;14.75;;;7.35;;
49051;SDS011;34866;48.670;18.260;2024-01-30T10:42:20;15.85;;;7.50;;
49051;SDS011;34866;48.670;18.260;2024-01-30T10:47:34;12.77;;;6.43;;
49051;SDS011;34866;48.670;18.260;2024-01-30T10:50:01;12.57;;;6.05;;
49051;SDS011;34866;48.670;18.260;2024-01-30T10:52:28;18.08;;;6.70;;
49051;SDS011;34866;48.670;18.260;2024-01-30T10:54:55;11.57;;;6.30;;
49051;SDS011;34866;48.670;18.260;2024-01-30T10:57:22;17.30;;;7.10;;
49051;SDS011;34866;48.670;18.260;2024-01-30T10:59:49;15.40;;;6.63;;
49051;SDS011;34866;48.670;18.260;2024-01-30T11:02:17;14.13;;;7.47;;
49051;SDS011;34866;48.670;18.260;2024-01-30T11:04:45;14.73;;;7.18;;
49051;SDS011;34866;48.670;18.260;2024-01-30T11:07:16;16.83;;;6.68;;
49051;SDS011;34866;48.670;18.260;2024-01-30T11:09:51;19.00;;;8.10;;
49051;SDS011;34866;48.670;18.260;2024-01-30T11:12:21;17.95;;;7.40;;
49051;SDS011;34866;48.670;18.260;2024-01-30T11:14:48;15.90;;;7.85;;
49051;SDS011;34866;48.670;18.260;2024-01-30T11:17:15;17.15;;;7.93;;
49051;SDS011;34866;48.670;18.260;2024-01-30T11:19:41;14.90;;;7.95;;
49051;SDS011;34866;48.670;18.260;2024-01-30T11:22:07;14.98;;;7.13;;
49051;SDS011;34866;48.670;18.260;2024-01-30T11:24:38;13.00;;;6.90;;
49051;SDS011;34866;48.670;18.260;2024-01-30T11:27:08;17.83;;;7.97;;
49051;SDS011;34866;48.670;18.260;2024-01-30T11:29:35;13.13;;;6.65;;
49051;SDS011;34866;48.670;18.260;2024-01-30T11:32:02;12.40;;;6.15;;
49051;SDS011;34866;48.670;18.260;2024-01-30T11:34:28;13.35;;;6.28;;
49051;SDS011;34866;48.670;18.260;2024-01-30T11:37:03;16.83;;;6.65;;
49051;SDS011;34866;48.670;18.260;2024-01-30T11:39:30;11.38;;;5.65;;
49051;SDS011;34866;48.670;18.260;2024-01-30T11:41:56;14.45;;;6.55;;
49051;SDS011;34866;48.670;18.260;2024-01-30T11:44:23;13.95;;;5.97;;
49051;SDS011;34866;48.670;18.260;2024-01-30T11:46:52;14.02;;;6.82;;
49051;SDS011;34866;48.670;18.260;2024-01-30T11:49:18;12.18;;;6.80;;
49051;SDS011;34866;48.670;18.260;2024-01-30T11:51:47;11.57;;;5.80;;
49051;SDS011;34866;48.670;18.260;2024-01-30T11:54:14;13.80;;;5.93;;
49051;SDS011;34866;48.670;18.260;2024-01-30T11:56:41;14.25;;;6.93;;
49051;SDS011;34866;48.670;18.260;2024-01-30T11:59:08;14.25;;;7.53;;
49051;SDS011;34866;48.670;18.260;2024-01-30T12:01:34;12.43;;;5.68;;
49051;SDS011;34866;48.670;18.260;2024-01-30T12:04:00;11.45;;;5.78;;
49051;SDS011;34866;48.670;18.260;2024-01-30T12:06:26;13.02;;;6.30;;
49051;SDS011;34866;48.670;18.260;2024-01-30T12:09:01;12.75;;;5.88;;
49051;SDS011;34866;48.670;18.260;2024-01-30T12:11:30;12.25;;;5.55;;
49051;SDS011;34866;48.670;18.260;2024-01-30T12:13:56;11.45;;;5.93;;
49051;SDS011;34866;48.670;18.260;2024-01-30T12:16:23;12.02;;;5.43;;
49051;SDS011;34866;48.670;18.260;2024-01-30T12:18:49;10.52;;;4.78;;
49051;SDS011;34866;48.670;18.260;2024-01-30T12:21:18;13.02;;;5.70;;
49051;SDS011;34866;48.670;18.260;2024-01-30T12:23:44;11.07;;;5.50;;
49051;SDS011;34866;48.670;18.260;2024-01-30T12:26:11;13.32;;;5.10;;
49051;SDS011;34866;48.670;18.260;2024-01-30T12:28:37;13.02;;;4.57;;
49051;SDS011;34866;48.670;18.260;2024-01-30T12:31:13;8.93;;;5.00;;
49051;SDS011;34866;48.670;18.260;2024-01-30T12:33:39;10.73;;;6.03;;
49051;SDS011;34866;48.670;18.260;2024-01-30T12:36:05;11.02;;;5.15;;
49051;SDS011;34866;48.670;18.260;2024-01-30T12:38:31;11.88;;;5.22;;
49051;SDS011;34866;48.670;18.260;2024-01-30T12:40:57;9.20;;;4.93;;
49051;SDS011;34866;48.670;18.260;2024-01-30T12:43:26;10.27;;;5.00;;
49051;SDS011;34866;48.670;18.260;2024-01-30T12:45:53;10.48;;;5.13;;
49051;SDS011;34866;48.670;18.260;2024-01-30T12:48:19;7.53;;;3.42;;
49051;SDS011;34866;48.670;18.260;2024-01-30T12:50:45;6.95;;;3.40;;
49051;SDS011;34866;48.670;18.260;2024-01-30T12:53:11;6.65;;;3.35;;
49051;SDS011;34866;48.670;18.260;2024-01-30T12:55:38;7.00;;;3.22;;
49051;SDS011;34866;48.670;18.260;2024-01-30T12:58:04;8.75;;;3.30;;
49051;SDS011;34866;48.670;18.260;2024-01-30T13:00:30;6.22;;;2.72;;
49051;SDS011;34866;48.670;18.260;2024-01-30T13:02:56;7.50;;;3.10;;
49051;SDS011;34866;48.670;18.260;2024-01-30T13:05:22;5.50;;;2.97;;
49051;SDS011;34866;48.670;18.260;2024-01-30T13:07:49;5.18;;;2.40;;
49051;SDS011;34866;48.670;18.260;2024-01-30T13:10:15;6.32;;;2.70;;
49051;SDS011;34866;48.670;18.260;2024-01-30T13:12:41;11.60;;;3.50;;
49051;SDS011;34866;48.670;18.260;2024-01-30T13:15:07;6.03;;;2.33;;
49051;SDS011;34866;48.670;18.260;2024-01-30T13:17:34;9.25;;;2.55;;
49051;SDS011;34866;48.670;18.260;2024-01-30T13:20:01;5.65;;;2.60;;
49051;SDS011;34866;48.670;18.260;2024-01-30T13:22:30;10.80;;;2.58;;
49051;SDS011;34866;48.670;18.260;2024-01-30T13:24:56;5.63;;;2.30;;
49051;SDS011;34866;48.670;18.260;2024-01-30T13:27:23;5.75;;;2.28;;
49051;SDS011;34866;48.670;18.260;2024-01-30T13:29:49;3.95;;;2.03;;
49051;SDS011;34866;48.670;18.260;2024-01-30T13:32:15;6.88;;;2.30;;
49051;SDS011;34866;48.670;18.260;2024-01-30T13:34:41;4.50;;;2.25;;
49051;SDS011;34866;48.670;18.260;2024-01-30T13:37:08;7.25;;;2.80;;
49051;SDS011;34866;48.670;18.260;2024-01-30T13:39:34;7.20;;;2.90;;
49051;SDS011;34866;48.670;18.260;2024-01-30T13:42:00;8.50;;;2.78;;
49051;SDS011;34866;48.670;18.260;2024-01-30T13:44:26;6.40;;;2.45;;
49051;SDS011;34866;48.670;18.260;2024-01-30T13:46:52;5.93;;;2.20;;
49051;SDS011;34866;48.670;18.260;2024-01-30T13:49:23;3.95;;;1.73;;
49051;SDS011;34866;48.670;18.260;2024-01-30T13:51:49;4.22;;;2.10;;
49051;SDS011;34866;48.670;18.260;2024-01-30T13:54:15;6.07;;;2.30;;
49051;SDS011;34866;48.670;18.260;2024-01-30T13:56:41;6.22;;;3.03;;
49051;SDS011;34866;48.670;18.260;2024-01-30T13:59:07;5.07;;;2.20;;
49051;SDS011;34866;48.670;18.260;2024-01-30T14:01:36;9.35;;;3.42;;
49051;SDS011;34866;48.670;18.260;2024-01-30T14:04:02;6.05;;;2.75;;
49051;SDS011;34866;48.670;18.260;2024-01-30T14:06:28;7.90;;;3.10;;
49051;SDS011;34866;48.670;18.260;2024-01-30T14:08:54;10.52;;;4.13;;
49051;SDS011;34866;48.670;18.260;2024-01-30T14:11:21;12.65;;;4.55;;
49051;SDS011;34866;48.670;18.260;2024-01-30T14:13:47;14.55;;;3.75;;
49051;SDS011;34866;48.670;18.260;2024-01-30T14:16:13;8.48;;;3.17;;